sensor_id;sensor_type;location;lat;lon;timestamp;pressure;altitude;pressure_sealevel;temperature;humidity
6835;BME280;3455;42.150;24.734;2022-12-24T00:01:54;65880.66;;;3.99;83.67
6835;BME280;3455;42.150;24.734;2022-12-24T00:04:21;65923.88;;;4.24;82.91
6835;BME280;3455;42.150;24.734;2022-12-24T00:06:47;65925.91;;;4.35;82.20
6835;BME280;3455;42.150;24.734;2022-12-24T00:09:14;65914.47;;;4.18;83.08
6835;BME280;3455;42.150;24.734;2022-12-24T00:11:42;65846.91;;;3.73;85.30
6835;BME280;3455;42.150;24.734;2022-12-24T00:14:09;65896.53;;;3.90;84.60
6835;BME280;3455;42.150;24.734;2022-12-24T00:16:36;65900.47;;;4.07;83.53
6835;BME280;3455;42.150;24.734;2022-12-24T00:19:02;65931.16;;;4.01;82.98
6835;BME280;3455;42.150;24.734;2022-12-24T00:21:29;65908.34;;;4.10;82.64
6835;BME280;3455;42.150;24.734;2022-12-24T00:23:56;65902.28;;;3.96;83.21
6835;BME280;3455;42.150;24.734;2022-12-24T00:26:22;65908.66;;;4.19;82.51
6835;BME280;3455;42.150;24.734;2022-12-24T00:28:51;65885.25;;;4.03;82.42
6835;BME280;3455;42.150;24.734;2022-12-24T00:31:17;65883.47;;;3.83;83.44
6835;BME280;3455;42.150;24.734;2022-12-24T00:33:45;65890.69;;;3.99;83.25
6835;BME280;3455;42.150;24.734;2022-12-24T00:36:12;65878.34;;;3.97;82.74
6835;BME280;3455;42.150;24.734;2022-12-24T00:38:39;65910.41;;;3.89;83.26
6835;BME280;3455;42.150;24.734;2022-12-24T00:41:07;65860.53;;;3.81;82.82
6835;BME280;3455;42.150;24.734;2022-12-24T00:43:50;65863.09;;;3.74;83.34
6835;BME280;3455;42.150;24.734;2022-12-24T00:46:17;65872.91;;;4.01;82.42
6835;BME280;3455;42.150;24.734;2022-12-24T00:48:43;65762.00;;;3.08;84.24
6835;BME280;3455;42.150;24.734;2022-12-24T00:51:10;65846.59;;;3.64;84.18
6835;BME280;3455;42.150;24.734;2022-12-24T00:53:37;65858.50;;;3.70;83.98
6835;BME280;3455;42.150;24.734;2022-12-24T00:56:04;65896.22;;;4.06;82.17
6835;BME280;3455;42.150;24.734;2022-12-24T00:58:31;65877.66;;;3.85;83.07
6835;BME280;3455;42.150;24.734;2022-12-24T01:01:00;65860.13;;;3.85;83.17
6835;BME280;3455;42.150;24.734;2022-12-24T01:03:27;65792.75;;;3.20;83.83
6835;BME280;3455;42.150;24.734;2022-12-24T01:05:59;65847.16;;;3.33;84.25
6835;BME280;3455;42.150;24.734;2022-12-24T01:08:25;65824.34;;;3.48;84.98
6835;BME280;3455;42.150;24.734;2022-12-24T01:10:52;65842.56;;;3.29;85.63
6835;BME280;3455;42.150;24.734;2022-12-24T01:13:19;65884.03;;;3.53;84.61
6835;BME280;3455;42.150;24.734;2022-12-24T01:15:46;65829.88;;;3.56;83.96
6835;BME280;3455;42.150;24.734;2022-12-24T01:18:14;65876.97;;;3.73;83.30
6835;BME280;3455;42.150;24.734;2022-12-24T01:20:40;65903.84;;;3.93;82.14
6835;BME280;3455;42.150;24.734;2022-12-24T01:23:07;65851.94;;;3.73;82.26
6835;BME280;3455;42.150;24.734;2022-12-24T01:25:36;65877.47;;;3.56;83.35
6835;BME280;3455;42.150;24.734;2022-12-24T01:28:03;65862.00;;;3.60;83.30
6835;BME280;3455;42.150;24.734;2022-12-24T01:30:30;65868.19;;;3.61;83.38
6835;BME280;3455;42.150;24.734;2022-12-24T01:32:57;65812.00;;;3.46;84.44
6835;BME280;3455;42.150;24.734;2022-12-24T01:35:25;65858.97;;;3.21;85.64
6835;BME280;3455;42.150;24.734;2022-12-24T01:37:52;65826.41;;;3.28;85.26
6835;BME280;3455;42.150;24.734;2022-12-24T01:40:18;65804.44;;;3.28;85.13
6835;BME280;3455;42.150;24.734;2022-12-24T01:43:02;65870.00;;;3.49;84.14
6835;BME280;3455;42.150;24.734;2022-12-24T01:45:53;65815.88;;;3.45;84.53
6835;BME280;3455;42.150;24.734;2022-12-24T01:48:42;65848.63;;;3.43;84.27
6835;BME280;3455;42.150;24.734;2022-12-24T01:51:16;65845.50;;;3.49;84.31
6835;BME280;3455;42.150;24.734;2022-12-24T01:53:48;65834.84;;;3.31;85.29
6835;BME280;3455;42.150;24.734;2022-12-24T01:56:17;65835.34;;;3.45;84.43
6835;BME280;3455;42.150;24.734;2022-12-24T01:58:49;65822.44;;;3.42;84.16
6835;BME280;3455;42.150;24.734;2022-12-24T02:01:16;65808.66;;;3.30;84.71
6835;BME280;3455;42.150;24.734;2022-12-24T02:03:43;65832.25;;;3.44;84.08
6835;BME280;3455;42.150;24.734;2022-12-24T02:06:12;65822.34;;;3.56;83.48
6835;BME280;3455;42.150;24.734;2022-12-24T02:08:40;65808.03;;;3.36;84.31
6835;BME280;3455;42.150;24.734;2022-12-24T02:11:10;65816.47;;;3.15;85.72
6835;BME280;3455;42.150;24.734;2022-12-24T02:13:37;65829.56;;;3.08;86.07
6835;BME280;3455;42.150;24.734;2022-12-24T02:16:10;65800.69;;;3.41;85.08
6835;BME280;3455;42.150;24.734;2022-12-24T02:18:47;65796.13;;;3.05;85.87
6835;BME280;3455;42.150;24.734;2022-12-24T02:21:41;65807.91;;;3.25;86.12
6835;BME280;3455;42.150;24.734;2022-12-24T02:24:41;65869.81;;;3.44;84.82
6835;BME280;3455;42.150;24.734;2022-12-24T02:27:21;65831.75;;;3.37;85.02
6835;BME280;3455;42.150;24.734;2022-12-24T02:30:14;65833.78;;;3.17;84.28
6835;BME280;3455;42.150;24.734;2022-12-24T02:32:54;65815.31;;;3.14;85.10
6835;BME280;3455;42.150;24.734;2022-12-24T02:35:29;65834.91;;;3.18;85.25
6835;BME280;3455;42.150;24.734;2022-12-24T02:38:03;65818.34;;;3.21;84.39
6835;BME280;3455;42.150;24.734;2022-12-24T02:40:36;65798.41;;;3.07;85.05
6835;BME280;3455;42.150;24.734;2022-12-24T02:43:09;65797.66;;;3.02;85.00
6835;BME280;3455;42.150;24.734;2022-12-24T02:45:41;65797.56;;;3.16;85.18
6835;BME280;3455;42.150;24.734;2022-12-24T02:48:12;65799.53;;;3.08;84.97
6835;BME280;3455;42.150;24.734;2022-12-24T02:50:53;65771.69;;;2.99;86.01
6835;BME280;3455;42.150;24.734;2022-12-24T02:53:20;65816.94;;;2.97;85.16
6835;BME280;3455;42.150;24.734;2022-12-24T02:55:59;65793.59;;;3.05;85.44
6835;BME280;3455;42.150;24.734;2022-12-24T02:58:38;65796.41;;;2.83;85.79
6835;BME280;3455;42.150;24.734;2022-12-24T03:01:16;65773.59;;;2.67;86.59
6835;BME280;3455;42.150;24.734;2022-12-24T03:03:52;65811.25;;;2.79;86.65
6835;BME280;3455;42.150;24.734;2022-12-24T03:06:31;65783.38;;;2.76;87.53
6835;BME280;3455;42.150;24.734;2022-12-24T03:09:09;65750.97;;;2.87;86.35
6835;BME280;3455;42.150;24.734;2022-12-24T03:11:43;65796.06;;;2.81;86.16
6835;BME280;3455;42.150;24.734;2022-12-24T03:14:14;65844.94;;;2.73;86.19
6835;BME280;3455;42.150;24.734;2022-12-24T03:16:44;65755.09;;;2.78;86.41
6835;BME280;3455;42.150;24.734;2022-12-24T03:19:11;65762.78;;;2.76;86.72
6835;BME280;3455;42.150;24.734;2022-12-24T03:21:38;65776.94;;;2.90;85.68
6835;BME280;3455;42.150;24.734;2022-12-24T03:24:07;65831.22;;;2.92;85.78
6835;BME280;3455;42.150;24.734;2022-12-24T03:26:34;65820.47;;;2.87;85.51
6835;BME280;3455;42.150;24.734;2022-12-24T03:29:04;65797.66;;;3.02;85.64
6835;BME280;3455;42.150;24.734;2022-12-24T03:31:40;65804.94;;;2.73;86.46
6835;BME280;3455;42.150;24.734;2022-12-24T03:34:08;65810.31;;;2.76;86.69
6835;BME280;3455;42.150;24.734;2022-12-24T03:36:35;65802.25;;;2.75;86.63
6835;BME280;3455;42.150;24.734;2022-12-24T03:39:02;65814.28;;;2.86;86.18
6835;BME280;3455;42.150;24.734;2022-12-24T03:41:29;65826.13;;;3.05;85.33
6835;BME280;3455;42.150;24.734;2022-12-24T03:43:56;65803.28;;;2.96;84.98
6835;BME280;3455;42.150;24.734;2022-12-24T03:46:22;65792.94;;;2.87;85.48
6835;BME280;3455;42.150;24.734;2022-12-24T03:48:49;65812.00;;;2.84;85.22
6835;BME280;3455;42.150;24.734;2022-12-24T03:51:19;65780.16;;;2.64;86.64
6835;BME280;3455;42.150;24.734;2022-12-24T03:53:47;65762.94;;;2.80;86.00
6835;BME280;3455;42.150;24.734;2022-12-24T03:56:14;65822.78;;;3.20;84.15
6835;BME280;3455;42.150;24.734;2022-12-24T03:58:41;65834.91;;;3.18;84.09
6835;BME280;3455;42.150;24.734;2022-12-24T04:01:07;65768.03;;;2.98;85.08
6835;BME280;3455;42.150;24.734;2022-12-24T04:03:34;65792.72;;;2.89;85.36
6835;BME280;3455;42.150;24.734;2022-12-24T04:06:02;65821.13;;;3.05;84.99
6835;BME280;3455;42.150;24.734;2022-12-24T04:08:31;65843.34;;;2.89;86.16
6835;BME280;3455;42.150;24.734;2022-12-24T04:10:57;65806.09;;;2.74;85.93
6835;BME280;3455;42.150;24.734;2022-12-24T04:13:24;65801.50;;;3.01;85.14
6835;BME280;3455;42.150;24.734;2022-12-24T04:15:56;65792.91;;;3.25;84.71
6835;BME280;3455;42.150;24.734;2022-12-24T04:18:23;65841.00;;;3.32;84.24
6835;BME280;3455;42.150;24.734;2022-12-24T04:20:50;65813.50;;;3.25;84.32
6835;BME280;3455;42.150;24.734;2022-12-24T04:23:17;65851.44;;;3.28;84.39
6835;BME280;3455;42.150;24.734;2022-12-24T04:25:45;65821.13;;;3.05;85.07
6835;BME280;3455;42.150;24.734;2022-12-24T04:28:12;65808.63;;;3.05;84.71
6835;BME280;3455;42.150;24.734;2022-12-24T04:30:39;65811.25;;;2.79;85.61
6835;BME280;3455;42.150;24.734;2022-12-24T04:33:06;65772.13;;;2.57;87.48
6835;BME280;3455;42.150;24.734;2022-12-24T04:35:33;65804.34;;;2.72;85.97
6835;BME280;3455;42.150;24.734;2022-12-24T04:38:03;65809.28;;;2.86;85.72
6835;BME280;3455;42.150;24.734;2022-12-24T04:40:30;65902.06;;;2.84;85.67
6835;BME280;3455;42.150;24.734;2022-12-24T04:42:58;65755.84;;;2.76;85.46
6835;BME280;3455;42.150;24.734;2022-12-24T04:45:25;65761.50;;;2.63;87.07
6835;BME280;3455;42.150;24.734;2022-12-24T04:47:52;65777.47;;;2.66;86.59
6835;BME280;3455;42.150;24.734;2022-12-24T04:50:18;65785.19;;;2.96;85.53
6835;BME280;3455;42.150;24.734;2022-12-24T04:52:45;65766.50;;;2.63;86.64
6835;BME280;3455;42.150;24.734;2022-12-24T04:55:12;65786.66;;;2.75;85.84
6835;BME280;3455;42.150;24.734;2022-12-24T04:57:38;65807.41;;;2.80;85.60
6835;BME280;3455;42.150;24.734;2022-12-24T05:00:09;65765.09;;;2.78;86.31
6835;BME280;3455;42.150;24.734;2022-12-24T05:02:36;65787.19;;;2.82;85.81
6835;BME280;3455;42.150;24.734;2022-12-24T05:05:04;65812.81;;;2.76;85.60
6835;BME280;3455;42.150;24.734;2022-12-24T05:07:30;65782.53;;;2.53;86.81
6835;BME280;3455;42.150;24.734;2022-12-24T05:09:59;65748.94;;;2.39;86.99
6835;BME280;3455;42.150;24.734;2022-12-24T05:12:25;65791.72;;;2.61;86.04
6835;BME280;3455;42.150;24.734;2022-12-24T05:14:52;65772.72;;;2.51;87.23
6835;BME280;3455;42.150;24.734;2022-12-24T05:17:20;65721.63;;;2.43;87.01
6835;BME280;3455;42.150;24.734;2022-12-24T05:19:47;65761.34;;;2.14;87.18
6835;BME280;3455;42.150;24.734;2022-12-24T05:22:14;65929.22;;;2.75;86.38
6835;BME280;3455;42.150;24.734;2022-12-24T05:24:58;65799.94;;;2.73;85.62
6835;BME280;3455;42.150;24.734;2022-12-24T05:27:42;65810.13;;;2.78;85.21
6835;BME280;3455;42.150;24.734;2022-12-24T05:30:09;65804.94;;;2.73;85.35
6835;BME280;3455;42.150;24.734;2022-12-24T05:32:37;65777.59;;;2.78;86.09
6835;BME280;3455;42.150;24.734;2022-12-24T05:35:04;65806.72;;;2.61;86.42
6835;BME280;3455;42.150;24.734;2022-12-24T05:37:31;65762.34;;;2.48;87.01
6835;BME280;3455;42.150;24.734;2022-12-24T05:39:57;65743.72;;;2.41;88.13
6835;BME280;3455;42.150;24.734;2022-12-24T05:42:24;65787.81;;;2.76;86.37
6835;BME280;3455;42.150;24.734;2022-12-24T05:44:51;65776.97;;;2.52;87.31
6835;BME280;3455;42.150;24.734;2022-12-24T05:47:18;65744.81;;;2.55;87.25
6835;BME280;3455;42.150;24.734;2022-12-24T05:49:46;65762.88;;;2.62;87.12
6835;BME280;3455;42.150;24.734;2022-12-24T05:52:12;65720.56;;;2.60;86.25
6835;BME280;3455;42.150;24.734;2022-12-24T05:54:39;65807.13;;;2.57;86.71
6835;BME280;3455;42.150;24.734;2022-12-24T05:57:06;65808.94;;;2.77;86.52
6835;BME280;3455;42.150;24.734;2022-12-24T05:59:33;65835.47;;;2.87;86.40
6835;BME280;3455;42.150;24.734;2022-12-24T06:01:59;65783.94;;;2.77;86.86
6835;BME280;3455;42.150;24.734;2022-12-24T06:04:26;65792.53;;;2.91;86.83
6835;BME280;3455;42.150;24.734;2022-12-24T06:06:54;65782.16;;;2.88;86.03
6835;BME280;3455;42.150;24.734;2022-12-24T06:09:21;65789.34;;;2.72;86.78
6835;BME280;3455;42.150;24.734;2022-12-24T06:11:47;65822.28;;;3.06;86.48
6835;BME280;3455;42.150;24.734;2022-12-24T06:14:14;65827.03;;;3.15;85.80
6835;BME280;3455;42.150;24.734;2022-12-24T06:16:41;65834.56;;;3.08;85.28
6835;BME280;3455;42.150;24.734;2022-12-24T06:19:09;65821.13;;;3.05;86.12
6835;BME280;3455;42.150;24.734;2022-12-24T06:21:35;65794.53;;;3.08;85.01
6835;BME280;3455;42.150;24.734;2022-12-24T06:24:04;65824.56;;;3.08;86.24
6835;BME280;3455;42.150;24.734;2022-12-24T06:26:31;65845.69;;;3.23;86.33
6835;BME280;3455;42.150;24.734;2022-12-24T06:28:57;65852.91;;;3.38;85.02
6835;BME280;3455;42.150;24.734;2022-12-24T06:31:24;65873.50;;;3.39;85.59
6835;BME280;3455;42.150;24.734;2022-12-24T06:33:51;65855.03;;;3.67;85.14
6835;BME280;3455;42.150;24.734;2022-12-24T06:36:19;65879.66;;;3.71;84.62
6835;BME280;3455;42.150;24.734;2022-12-24T06:38:48;65868.41;;;3.83;84.61
6835;BME280;3455;42.150;24.734;2022-12-24T06:41:17;65871.75;;;3.75;84.47
6835;BME280;3455;42.150;24.734;2022-12-24T06:43:45;65898.81;;;3.93;84.96
6835;BME280;3455;42.150;24.734;2022-12-24T06:46:12;65885.00;;;3.80;83.74
6835;BME280;3455;42.150;24.734;2022-12-24T06:48:39;65876.03;;;3.70;83.82
6835;BME280;3455;42.150;24.734;2022-12-24T06:51:06;65907.91;;;4.14;84.50
6835;BME280;3455;42.150;24.734;2022-12-24T06:53:33;65940.03;;;4.56;85.02
6835;BME280;3455;42.150;24.734;2022-12-24T06:56:02;66230.63;;;7.42;88.99
6835;BME280;3455;42.150;24.734;2022-12-24T06:58:31;66533.94;;;10.09;80.96
6835;BME280;3455;42.150;24.734;2022-12-24T07:01:00;66737.47;;;12.15;62.47
6835;BME280;3455;42.150;24.734;2022-12-24T07:03:27;66905.94;;;14.00;53.69
6835;BME280;3455;42.150;24.734;2022-12-24T07:05:53;66970.53;;;15.11;51.27
6835;BME280;3455;42.150;24.734;2022-12-24T07:08:21;66979.81;;;14.97;44.39
6835;BME280;3455;42.150;24.734;2022-12-24T07:10:49;67170.44;;;16.41;42.87
6835;BME280;3455;42.150;24.734;2022-12-24T07:13:16;67250.25;;;17.70;38.47
6835;BME280;3455;42.150;24.734;2022-12-24T07:15:44;67354.63;;;18.37;36.22
6835;BME280;3455;42.150;24.734;2022-12-24T07:18:11;67353.16;;;18.49;35.34
6835;BME280;3455;42.150;24.734;2022-12-24T07:20:38;67347.84;;;18.40;35.88
6835;BME280;3455;42.150;24.734;2022-12-24T07:23:05;67230.41;;;17.48;36.87
6835;BME280;3455;42.150;24.734;2022-12-24T07:25:31;67401.16;;;19.05;34.60
6835;BME280;3455;42.150;24.734;2022-12-24T07:27:58;67260.88;;;18.00;36.24
6835;BME280;3455;42.150;24.734;2022-12-24T07:30:25;67503.00;;;19.68;33.61
6835;BME280;3455;42.150;24.734;2022-12-24T07:32:53;67546.00;;;20.29;31.85
6835;BME280;3455;42.150;24.734;2022-12-24T07:35:20;67647.19;;;21.09;30.05
6835;BME280;3455;42.150;24.734;2022-12-24T07:37:46;67430.06;;;19.22;32.59
6835;BME280;3455;42.150;24.734;2022-12-24T07:40:13;67453.34;;;19.42;32.85
6835;BME280;3455;42.150;24.734;2022-12-24T07:42:40;67508.63;;;20.18;31.77
6835;BME280;3455;42.150;24.734;2022-12-24T07:45:08;67642.22;;;21.18;31.48
6835;BME280;3455;42.150;24.734;2022-12-24T07:47:35;67823.09;;;22.82;28.21
6835;BME280;3455;42.150;24.734;2022-12-24T07:50:04;67711.91;;;21.97;29.58
6835;BME280;3455;42.150;24.734;2022-12-24T07:52:31;67724.91;;;21.86;29.54
6835;BME280;3455;42.150;24.734;2022-12-24T07:54:58;67473.03;;;19.82;31.76
6835;BME280;3455;42.150;24.734;2022-12-24T07:57:24;67287.97;;;18.42;33.89
6835;BME280;3455;42.150;24.734;2022-12-24T07:59:51;67147.56;;;16.72;37.57
6835;BME280;3455;42.150;24.734;2022-12-24T08:02:18;67016.00;;;15.38;41.25
6835;BME280;3455;42.150;24.734;2022-12-24T08:04:45;66968.66;;;15.28;41.56
6835;BME280;3455;42.150;24.734;2022-12-24T08:07:14;67015.94;;;15.83;40.49
6835;BME280;3455;42.150;24.734;2022-12-24T08:09:41;67004.13;;;15.52;41.20
6835;BME280;3455;42.150;24.734;2022-12-24T08:12:08;67131.13;;;16.99;38.35
6835;BME280;3455;42.150;24.734;2022-12-24T08:14:35;67081.63;;;16.23;39.12
6835;BME280;3455;42.150;24.734;2022-12-24T08:17:02;66909.31;;;14.89;42.69
6835;BME280;3455;42.150;24.734;2022-12-24T08:19:28;66926.00;;;14.76;42.86
6835;BME280;3455;42.150;24.734;2022-12-24T08:21:55;66815.72;;;14.15;43.94
6835;BME280;3455;42.150;24.734;2022-12-24T08:24:23;66760.38;;;13.52;46.46
6835;BME280;3455;42.150;24.734;2022-12-24T08:26:50;66777.75;;;13.45;46.32
6835;BME280;3455;42.150;24.734;2022-12-24T08:29:17;66780.50;;;13.20;47.13
6835;BME280;3455;42.150;24.734;2022-12-24T08:31:45;66742.72;;;12.82;49.36
6835;BME280;3455;42.150;24.734;2022-12-24T08:34:15;66755.47;;;12.94;49.83
6835;BME280;3455;42.150;24.734;2022-12-24T08:36:42;66650.00;;;12.36;51.21
6835;BME280;3455;42.150;24.734;2022-12-24T08:39:09;66794.84;;;13.29;49.99
6835;BME280;3455;42.150;24.734;2022-12-24T08:41:37;66838.53;;;13.99;47.48
6835;BME280;3455;42.150;24.734;2022-12-24T08:44:03;66914.41;;;14.77;45.21
6835;BME280;3455;42.150;24.734;2022-12-24T08:46:30;66785.84;;;13.52;47.12
6835;BME280;3455;42.150;24.734;2022-12-24T08:48:57;66860.22;;;13.01;48.36
6835;BME280;3455;42.150;24.734;2022-12-24T08:51:24;66772.28;;;13.31;48.35
6835;BME280;3455;42.150;24.734;2022-12-24T08:53:50;66793.25;;;13.66;48.02
6835;BME280;3455;42.150;24.734;2022-12-24T08:56:17;66861.34;;;14.17;47.49
6835;BME280;3455;42.150;24.734;2022-12-24T08:58:45;67120.13;;;16.66;42.34
6835;BME280;3455;42.150;24.734;2022-12-24T09:01:16;67303.28;;;18.10;39.65
6835;BME280;3455;42.150;24.734;2022-12-24T09:03:44;67196.53;;;16.98;40.00
6835;BME280;3455;42.150;24.734;2022-12-24T09:06:11;66971.00;;;15.07;44.00
6835;BME280;3455;42.150;24.734;2022-12-24T09:08:38;66932.50;;;14.64;45.35
6835;BME280;3455;42.150;24.734;2022-12-24T09:11:06;66840.50;;;13.87;47.66
6835;BME280;3455;42.150;24.734;2022-12-24T09:13:33;67020.16;;;15.46;44.69
6835;BME280;3455;42.150;24.734;2022-12-24T09:16:02;67291.94;;;17.86;39.38
6835;BME280;3455;42.150;24.734;2022-12-24T09:18:29;67087.16;;;16.42;41.67
6835;BME280;3455;42.150;24.734;2022-12-24T09:21:00;67024.00;;;15.41;43.51
6835;BME280;3455;42.150;24.734;2022-12-24T09:23:27;67331.00;;;18.25;39.52
6835;BME280;3455;42.150;24.734;2022-12-24T09:25:54;67454.19;;;19.57;36.14
6835;BME280;3455;42.150;24.734;2022-12-24T09:28:21;67462.63;;;19.51;35.64
6835;BME280;3455;42.150;24.734;2022-12-24T09:30:58;67410.59;;;18.91;36.69
6835;BME280;3455;42.150;24.734;2022-12-24T09:33:27;67265.59;;;17.81;37.94
6835;BME280;3455;42.150;24.734;2022-12-24T09:35:54;67276.50;;;17.98;37.89
6835;BME280;3455;42.150;24.734;2022-12-24T09:38:21;67302.13;;;18.36;36.10
6835;BME280;3455;42.150;24.734;2022-12-24T09:40:49;67235.59;;;17.64;37.71
6835;BME280;3455;42.150;24.734;2022-12-24T09:43:19;67109.03;;;16.52;39.48
6835;BME280;3455;42.150;24.734;2022-12-24T09:46:05;67037.56;;;15.84;41.24
6835;BME280;3455;42.150;24.734;2022-12-24T09:48:38;67015.00;;;15.69;42.30
6835;BME280;3455;42.150;24.734;2022-12-24T09:51:08;67101.88;;;16.14;40.83
6835;BME280;3455;42.150;24.734;2022-12-24T09:53:39;66953.59;;;15.03;43.26
6835;BME280;3455;42.150;24.734;2022-12-24T09:56:13;67034.88;;;15.80;42.31
6835;BME280;3455;42.150;24.734;2022-12-24T09:58:44;67305.47;;;16.00;41.08
6835;BME280;3455;42.150;24.734;2022-12-24T10:01:15;67132.22;;;16.72;40.25
6835;BME280;3455;42.150;24.734;2022-12-24T10:03:45;67096.50;;;16.16;41.52
6835;BME280;3455;42.150;24.734;2022-12-24T10:06:15;67024.81;;;15.50;43.18
6835;BME280;3455;42.150;24.734;2022-12-24T10:08:55;67145.72;;;16.66;40.76
6835;BME280;3455;42.150;24.734;2022-12-24T10:11:30;67089.06;;;16.25;41.21
6835;BME280;3455;42.150;24.734;2022-12-24T10:14:14;67130.16;;;16.57;40.85
6835;BME280;3455;42.150;24.734;2022-12-24T10:16:48;67199.56;;;17.32;40.23
6835;BME280;3455;42.150;24.734;2022-12-24T10:19:24;67112.69;;;16.64;40.95
6835;BME280;3455;42.150;24.734;2022-12-24T10:22:03;67063.31;;;15.93;42.31
6835;BME280;3455;42.150;24.734;2022-12-24T10:24:38;67189.91;;;15.70;42.56
6835;BME280;3455;42.150;24.734;2022-12-24T10:27:12;67000.91;;;15.25;43.75
6835;BME280;3455;42.150;24.734;2022-12-24T10:29:42;67078.53;;;16.00;42.63
6835;BME280;3455;42.150;24.734;2022-12-24T10:32:16;67125.50;;;16.64;41.58
6835;BME280;3455;42.150;24.734;2022-12-24T10:34:52;67409.41;;;18.90;37.46
6835;BME280;3455;42.150;24.734;2022-12-24T10:37:24;67439.41;;;19.19;36.12
6835;BME280;3455;42.150;24.734;2022-12-24T10:39:53;67367.50;;;18.53;37.68
6835;BME280;3455;42.150;24.734;2022-12-24T10:42:23;67194.94;;;17.28;39.18
6835;BME280;3455;42.150;24.734;2022-12-24T10:44:54;67252.31;;;17.74;39.25
6835;BME280;3455;42.150;24.734;2022-12-24T10:47:23;67425.91;;;19.14;36.79
6835;BME280;3455;42.150;24.734;2022-12-24T10:49:56;67399.44;;;19.47;35.64
6835;BME280;3455;42.150;24.734;2022-12-24T10:52:29;67300.97;;;18.35;37.08
6835;BME280;3455;42.150;24.734;2022-12-24T10:55:07;67299.81;;;18.34;37.60
6835;BME280;3455;42.150;24.734;2022-12-24T10:57:36;67267.91;;;17.83;39.09
6835;BME280;3455;42.150;24.734;2022-12-24T11:00:06;67151.25;;;16.96;39.41
6835;BME280;3455;42.150;24.734;2022-12-24T11:02:36;67192.34;;;17.39;39.60
6835;BME280;3455;42.150;24.734;2022-12-24T11:07:59;67203.13;;;17.12;41.26
6835;BME280;3455;42.150;24.734;2022-12-24T11:10:26;67114.31;;;16.61;41.83
6835;BME280;3455;42.150;24.734;2022-12-24T11:12:53;67091.09;;;15.91;41.52
6835;BME280;3455;42.150;24.734;2022-12-24T11:15:22;66983.66;;;15.86;42.39
6835;BME280;3455;42.150;24.734;2022-12-24T11:17:52;67143.41;;;16.64;40.72
6835;BME280;3455;42.150;24.734;2022-12-24T11:20:26;67021.53;;;15.79;43.18
6835;BME280;3455;42.150;24.734;2022-12-24T11:22:55;67031.75;;;15.79;43.33
6835;BME280;3455;42.150;24.734;2022-12-24T11:25:25;66975.72;;;15.16;44.38
6835;BME280;3455;42.150;24.734;2022-12-24T11:27:54;66864.69;;;14.38;45.54
6835;BME280;3455;42.150;24.734;2022-12-24T11:30:27;66934.13;;;14.61;45.32
6835;BME280;3455;42.150;24.734;2022-12-24T11:33:16;66951.16;;;14.85;45.09
6835;BME280;3455;42.150;24.734;2022-12-24T11:35:49;66918.94;;;14.54;45.96
6835;BME280;3455;42.150;24.734;2022-12-24T11:38:20;66926.94;;;14.68;46.12
6835;BME280;3455;42.150;24.734;2022-12-24T11:40:49;66933.88;;;14.74;46.52
6835;BME280;3455;42.150;24.734;2022-12-24T11:43:22;66931.56;;;14.95;46.74
6835;BME280;3455;42.150;24.734;2022-12-24T11:45:51;67005.53;;;15.29;47.11
6835;BME280;3455;42.150;24.734;2022-12-24T11:48:27;67036.16;;;15.74;44.84
6835;BME280;3455;42.150;24.734;2022-12-24T11:50:58;67042.66;;;15.84;43.65
6835;BME280;3455;42.150;24.734;2022-12-24T11:53:29;67072.72;;;16.06;43.78
6835;BME280;3455;42.150;24.734;2022-12-24T11:55:59;67084.22;;;16.12;42.78
6835;BME280;3455;42.150;24.734;2022-12-24T11:58:32;67067.44;;;16.24;42.53
6835;BME280;3455;42.150;24.734;2022-12-24T12:01:08;67081.88;;;16.10;43.13
6835;BME280;3455;42.150;24.734;2022-12-24T12:03:41;66991.63;;;15.39;45.01
6835;BME280;3455;42.150;24.734;2022-12-24T12:06:22;66989.31;;;15.14;45.56
6835;BME280;3455;42.150;24.734;2022-12-24T12:08:53;66864.31;;;14.81;46.66
6835;BME280;3455;42.150;24.734;2022-12-24T12:11:22;66948.38;;;14.87;47.52
6835;BME280;3455;42.150;24.734;2022-12-24T12:13:52;66917.66;;;14.83;46.25
6835;BME280;3455;42.150;24.734;2022-12-24T12:16:23;66927.88;;;14.83;46.88
6835;BME280;3455;42.150;24.734;2022-12-24T12:18:57;66975.88;;;14.98;45.47
6835;BME280;3455;42.150;24.734;2022-12-24T12:21:31;66970.06;;;14.70;46.60
6835;BME280;3455;42.150;24.734;2022-12-24T12:24:03;66940.84;;;14.81;47.27
6835;BME280;3455;42.150;24.734;2022-12-24T12:26:32;66984.88;;;14.52;47.82
6835;BME280;3455;42.150;24.734;2022-12-24T12:29:04;67000.22;;;14.97;45.90
6835;BME280;3455;42.150;24.734;2022-12-24T12:31:40;66935.63;;;14.76;47.45
6835;BME280;3455;42.150;24.734;2022-12-24T12:34:11;66945.97;;;14.92;46.16
6835;BME280;3455;42.150;24.734;2022-12-24T12:36:44;66891.94;;;14.73;47.62
6835;BME280;3455;42.150;24.734;2022-12-24T12:39:12;66960.78;;;14.96;46.56
6835;BME280;3455;42.150;24.734;2022-12-24T12:41:47;66946.53;;;14.81;47.32
6835;BME280;3455;42.150;24.734;2022-12-24T12:44:30;66965.66;;;15.21;46.43
6835;BME280;3455;42.150;24.734;2022-12-24T12:47:30;66908.16;;;14.76;47.24
6835;BME280;3455;42.150;24.734;2022-12-24T12:50:07;66940.25;;;15.03;47.10
6835;BME280;3455;42.150;24.734;2022-12-24T12:53:04;66954.28;;;14.74;48.00
6835;BME280;3455;42.150;24.734;2022-12-24T12:55:43;66925.19;;;14.67;48.24
6835;BME280;3455;42.150;24.734;2022-12-24T12:58:17;66943.19;;;14.60;48.45
6835;BME280;3455;42.150;24.734;2022-12-24T13:00:47;66948.63;;;14.74;48.83
6835;BME280;3455;42.150;24.734;2022-12-24T13:03:56;66922.78;;;14.60;49.00
6835;BME280;3455;42.150;24.734;2022-12-24T13:09:47;66865.63;;;14.41;49.72
6835;BME280;3455;42.150;24.734;2022-12-24T13:12:29;66864.13;;;14.26;50.30
6835;BME280;3455;42.150;24.734;2022-12-24T13:15:25;66890.53;;;14.18;51.69
6835;BME280;3455;42.150;24.734;2022-12-24T13:18:13;66878.81;;;14.26;50.78
6835;BME280;3455;42.150;24.734;2022-12-24T13:20:48;66799.16;;;13.41;53.45
6835;BME280;3455;42.150;24.734;2022-12-24T13:23:18;66800.66;;;13.56;53.99
6835;BME280;3455;42.150;24.734;2022-12-24T13:25:49;66793.13;;;13.50;54.60
6835;BME280;3455;42.150;24.734;2022-12-24T13:28:31;66794.53;;;13.49;54.61
6835;BME280;3455;42.150;24.734;2022-12-24T13:31:23;66753.84;;;12.97;55.86
6835;BME280;3455;42.150;24.734;2022-12-24T13:33:53;66786.25;;;13.25;54.44
6835;BME280;3455;42.150;24.734;2022-12-24T13:36:20;66812.44;;;13.31;54.27
6835;BME280;3455;42.150;24.734;2022-12-24T13:38:47;66708.75;;;12.79;56.77
6835;BME280;3455;42.150;24.734;2022-12-24T13:44:40;66719.81;;;12.71;58.17